sensor_id;sensor_type;location;lat;lon;timestamp;P1;durP1;ratioP1;P2;durP2;ratioP2
52015;SDS011;38032;53.326;6.472;2022-09-09T00:01:01;12.85;;;7.97;;
52015;SDS011;38032;53.326;6.472;2022-09-09T00:03:43;10.90;;;7.65;;
52015;SDS011;38032;53.326;6.472;2022-09-09T00:06:23;11.52;;;7.82;;
52015;SDS011;38032;53.326;6.472;2022-09-09T00:08:58;10.85;;;7.93;;
52015;SDS011;38032;53.326;6.472;2022-09-09T00:11:35;11.32;;;8.00;;
52015;SDS011;38032;53.326;6.472;2022-09-09T00:14:11;11.35;;;7.75;;
52015;SDS011;38032;53.326;6.472;2022-09-09T00:16:44;11.23;;;8.32;;
52015;SDS011;38032;53.326;6.472;2022-09-09T00:27:11;9.90;;;8.15;;
52015;SDS011;38032;53.326;6.472;2022-09-09T00:29:57;11.90;;;8.13;;
52015;SDS011;38032;53.326;6.472;2022-09-09T00:32:37;12.48;;;7.80;;
52015;SDS011;38032;53.326;6.472;2022-09-09T00:35:05;13.85;;;8.85;;
52015;SDS011;38032;53.326;6.472;2022-09-09T00:37:56;11.55;;;8.38;;
52015;SDS011;38032;53.326;6.472;2022-09-09T00:40:32;11.73;;;8.52;;
52015;SDS011;38032;53.326;6.472;2022-09-09T00:43:03;13.23;;;8.55;;
52015;SDS011;38032;53.326;6.472;2022-09-09T00:45:42;11.40;;;8.48;;
52015;SDS011;38032;53.326;6.472;2022-09-09T00:48:21;11.45;;;8.23;;
52015;SDS011;38032;53.326;6.472;2022-09-09T00:50:57;12.48;;;8.73;;
52015;SDS011;38032;53.326;6.472;2022-09-09T00:53:42;13.00;;;9.43;;
52015;SDS011;38032;53.326;6.472;2022-09-09T00:56:28;12.82;;;9.32;;
52015;SDS011;38032;53.326;6.472;2022-09-09T00:59:03;12.57;;;8.85;;
52015;SDS011;38032;53.326;6.472;2022-09-09T01:01:42;14.50;;;8.95;;
52015;SDS011;38032;53.326;6.472;2022-09-09T01:04:09;13.10;;;8.85;;
52015;SDS011;38032;53.326;6.472;2022-09-09T01:06:41;11.32;;;9.50;;
52015;SDS011;38032;53.326;6.472;2022-09-09T01:09:13;11.50;;;9.07;;
52015;SDS011;38032;53.326;6.472;2022-09-09T01:12:05;12.70;;;8.48;;
52015;SDS011;38032;53.326;6.472;2022-09-09T01:14:45;14.52;;;9.38;;
52015;SDS011;38032;53.326;6.472;2022-09-09T01:17:20;15.32;;;10.15;;
52015;SDS011;38032;53.326;6.472;2022-09-09T01:19:55;11.93;;;9.90;;
52015;SDS011;38032;53.326;6.472;2022-09-09T01:22:42;14.45;;;9.10;;
52015;SDS011;38032;53.326;6.472;2022-09-09T01:25:22;13.75;;;9.35;;
52015;SDS011;38032;53.326;6.472;2022-09-09T01:27:58;15.55;;;9.25;;
52015;SDS011;38032;53.326;6.472;2022-09-09T01:30:28;14.23;;;9.18;;
52015;SDS011;38032;53.326;6.472;2022-09-09T01:32:55;15.40;;;10.55;;
52015;SDS011;38032;53.326;6.472;2022-09-09T01:37:56;12.27;;;9.35;;
52015;SDS011;38032;53.326;6.472;2022-09-09T01:40:22;12.85;;;9.80;;
52015;SDS011;38032;53.326;6.472;2022-09-09T01:42:49;12.18;;;8.65;;
52015;SDS011;38032;53.326;6.472;2022-09-09T01:45:15;11.85;;;8.98;;
52015;SDS011;38032;53.326;6.472;2022-09-09T01:47:41;10.38;;;8.20;;
52015;SDS011;38032;53.326;6.472;2022-09-09T01:50:08;13.05;;;9.00;;
52015;SDS011;38032;53.326;6.472;2022-09-09T01:52:37;13.65;;;9.20;;
52015;SDS011;38032;53.326;6.472;2022-09-09T01:55:04;11.20;;;8.65;;
52015;SDS011;38032;53.326;6.472;2022-09-09T01:57:33;13.77;;;9.20;;
52015;SDS011;38032;53.326;6.472;2022-09-09T02:00:10;11.52;;;8.63;;
52015;SDS011;38032;53.326;6.472;2022-09-09T02:08:15;12.27;;;8.95;;
52015;SDS011;38032;53.326;6.472;2022-09-09T02:10:58;11.50;;;8.30;;
52015;SDS011;38032;53.326;6.472;2022-09-09T02:13:30;12.95;;;9.02;;
52015;SDS011;38032;53.326;6.472;2022-09-09T02:16:08;12.10;;;8.55;;
52015;SDS011;38032;53.326;6.472;2022-09-09T02:18:37;12.00;;;8.30;;
52015;SDS011;38032;53.326;6.472;2022-09-09T02:21:07;10.25;;;7.75;;
52015;SDS011;38032;53.326;6.472;2022-09-09T02:23:36;10.90;;;8.13;;
52015;SDS011;38032;53.326;6.472;2022-09-09T02:26:04;10.70;;;8.15;;
52015;SDS011;38032;53.326;6.472;2022-09-09T02:28:32;13.23;;;8.70;;
52015;SDS011;38032;53.326;6.472;2022-09-09T02:31:01;11.65;;;9.07;;
52015;SDS011;38032;53.326;6.472;2022-09-09T02:33:28;14.05;;;8.52;;
52015;SDS011;38032;53.326;6.472;2022-09-09T02:35:59;12.05;;;8.75;;
52015;SDS011;38032;53.326;6.472;2022-09-09T02:38:29;12.95;;;8.63;;
52015;SDS011;38032;53.326;6.472;2022-09-09T02:41:00;15.07;;;8.48;;
52015;SDS011;38032;53.326;6.472;2022-09-09T02:43:31;14.18;;;8.63;;
52015;SDS011;38032;53.326;6.472;2022-09-09T02:48:30;10.93;;;8.52;;
52015;SDS011;38032;53.326;6.472;2022-09-09T02:51:08;10.93;;;9.15;;
52015;SDS011;38032;53.326;6.472;2022-09-09T02:53:47;14.05;;;9.15;;
52015;SDS011;38032;53.326;6.472;2022-09-09T02:56:29;12.10;;;9.00;;
52015;SDS011;38032;53.326;6.472;2022-09-09T02:59:02;13.60;;;9.70;;
52015;SDS011;38032;53.326;6.472;2022-09-09T03:01:29;14.50;;;10.13;;
52015;SDS011;38032;53.326;6.472;2022-09-09T03:03:56;15.95;;;9.55;;
52015;SDS011;38032;53.326;6.472;2022-09-09T03:06:22;16.38;;;9.90;;
52015;SDS011;38032;53.326;6.472;2022-09-09T03:08:48;15.93;;;10.02;;
52015;SDS011;38032;53.326;6.472;2022-09-09T03:11:15;16.70;;;10.65;;
52015;SDS011;38032;53.326;6.472;2022-09-09T03:13:42;15.30;;;10.13;;
52015;SDS011;38032;53.326;6.472;2022-09-09T03:16:07;15.65;;;10.57;;
52015;SDS011;38032;53.326;6.472;2022-09-09T03:18:33;13.27;;;9.63;;
52015;SDS011;38032;53.326;6.472;2022-09-09T03:20:59;13.15;;;9.00;;
52015;SDS011;38032;53.326;6.472;2022-09-09T03:23:25;14.07;;;9.95;;
52015;SDS011;38032;53.326;6.472;2022-09-09T03:25:51;14.23;;;9.63;;
52015;SDS011;38032;53.326;6.472;2022-09-09T03:28:18;13.88;;;9.95;;
52015;SDS011;38032;53.326;6.472;2022-09-09T03:30:45;13.82;;;9.55;;
52015;SDS011;38032;53.326;6.472;2022-09-09T03:33:11;13.07;;;10.30;;
52015;SDS011;38032;53.326;6.472;2022-09-09T03:35:37;14.18;;;9.40;;
52015;SDS011;38032;53.326;6.472;2022-09-09T03:38:04;16.55;;;10.13;;
52015;SDS011;38032;53.326;6.472;2022-09-09T03:40:30;13.32;;;9.48;;
52015;SDS011;38032;53.326;6.472;2022-09-09T03:42:56;14.02;;;10.00;;
52015;SDS011;38032;53.326;6.472;2022-09-09T03:45:21;11.57;;;9.13;;
52015;SDS011;38032;53.326;6.472;2022-09-09T03:47:47;14.95;;;9.52;;
52015;SDS011;38032;53.326;6.472;2022-09-09T03:50:14;14.65;;;9.98;;
52015;SDS011;38032;53.326;6.472;2022-09-09T03:52:40;14.25;;;9.00;;
52015;SDS011;38032;53.326;6.472;2022-09-09T03:55:07;13.60;;;9.52;;
52015;SDS011;38032;53.326;6.472;2022-09-09T03:57:33;14.07;;;9.57;;
52015;SDS011;38032;53.326;6.472;2022-09-09T04:00:03;13.98;;;9.70;;
52015;SDS011;38032;53.326;6.472;2022-09-09T04:02:30;14.80;;;10.00;;
52015;SDS011;38032;53.326;6.472;2022-09-09T04:04:56;17.85;;;9.68;;
52015;SDS011;38032;53.326;6.472;2022-09-09T04:07:22;12.80;;;9.48;;
52015;SDS011;38032;53.326;6.472;2022-09-09T04:09:47;12.65;;;8.70;;
52015;SDS011;38032;53.326;6.472;2022-09-09T04:12:13;11.73;;;8.55;;
52015;SDS011;38032;53.326;6.472;2022-09-09T04:14:39;12.23;;;9.40;;
52015;SDS011;38032;53.326;6.472;2022-09-09T04:17:05;12.35;;;8.30;;
52015;SDS011;38032;53.326;6.472;2022-09-09T04:19:31;12.25;;;7.90;;
52015;SDS011;38032;53.326;6.472;2022-09-09T04:21:57;11.15;;;7.93;;
52015;SDS011;38032;53.326;6.472;2022-09-09T04:24:24;10.48;;;7.38;;
52015;SDS011;38032;53.326;6.472;2022-09-09T04:26:49;11.98;;;7.63;;
52015;SDS011;38032;53.326;6.472;2022-09-09T04:29:15;10.77;;;7.43;;
52015;SDS011;38032;53.326;6.472;2022-09-09T04:31:41;14.02;;;7.97;;
52015;SDS011;38032;53.326;6.472;2022-09-09T04:34:08;13.32;;;7.35;;
52015;SDS011;38032;53.326;6.472;2022-09-09T04:36:34;10.80;;;7.18;;
52015;SDS011;38032;53.326;6.472;2022-09-09T04:39:00;9.88;;;6.68;;
52015;SDS011;38032;53.326;6.472;2022-09-09T04:41:26;9.93;;;6.80;;
52015;SDS011;38032;53.326;6.472;2022-09-09T04:43:52;12.65;;;6.28;;
52015;SDS011;38032;53.326;6.472;2022-09-09T04:46:19;11.23;;;6.82;;
52015;SDS011;38032;53.326;6.472;2022-09-09T04:48:48;10.15;;;6.25;;
52015;SDS011;38032;53.326;6.472;2022-09-09T04:51:14;11.07;;;7.10;;
52015;SDS011;38032;53.326;6.472;2022-09-09T04:53:40;10.10;;;7.00;;
52015;SDS011;38032;53.326;6.472;2022-09-09T04:56:07;10.35;;;6.78;;
52015;SDS011;38032;53.326;6.472;2022-09-09T04:58:37;12.68;;;7.07;;
52015;SDS011;38032;53.326;6.472;2022-09-09T05:01:11;11.65;;;6.80;;
52015;SDS011;38032;53.326;6.472;2022-09-09T05:03:39;10.43;;;6.05;;
52015;SDS011;38032;53.326;6.472;2022-09-09T05:06:07;9.05;;;6.50;;
52015;SDS011;38032;53.326;6.472;2022-09-09T05:08:36;11.38;;;6.68;;
52015;SDS011;38032;53.326;6.472;2022-09-09T05:11:04;10.73;;;6.70;;
52015;SDS011;38032;53.326;6.472;2022-09-09T05:13:41;8.60;;;6.47;;
52015;SDS011;38032;53.326;6.472;2022-09-09T05:16:07;8.93;;;6.47;;
52015;SDS011;38032;53.326;6.472;2022-09-09T05:18:36;12.85;;;6.65;;
52015;SDS011;38032;53.326;6.472;2022-09-09T05:21:03;8.73;;;6.10;;
52015;SDS011;38032;53.326;6.472;2022-09-09T05:23:29;11.50;;;6.38;;
52015;SDS011;38032;53.326;6.472;2022-09-09T05:25:55;12.35;;;6.68;;
52015;SDS011;38032;53.326;6.472;2022-09-09T05:28:22;11.65;;;6.80;;
52015;SDS011;38032;53.326;6.472;2022-09-09T05:30:55;9.25;;;6.45;;
52015;SDS011;38032;53.326;6.472;2022-09-09T05:33:24;9.00;;;6.55;;
52015;SDS011;38032;53.326;6.472;2022-09-09T05:35:57;12.80;;;6.47;;
52015;SDS011;38032;53.326;6.472;2022-09-09T05:38:26;9.25;;;6.30;;
52015;SDS011;38032;53.326;6.472;2022-09-09T05:40:52;7.68;;;5.93;;
52015;SDS011;38032;53.326;6.472;2022-09-09T05:43:19;9.63;;;6.80;;
52015;SDS011;38032;53.326;6.472;2022-09-09T05:45:46;11.05;;;7.60;;
52015;SDS011;38032;53.326;6.472;2022-09-09T05:48:13;9.85;;;7.00;;
52015;SDS011;38032;53.326;6.472;2022-09-09T05:50:40;9.88;;;6.80;;
52015;SDS011;38032;53.326;6.472;2022-09-09T05:53:07;11.40;;;7.35;;
52015;SDS011;38032;53.326;6.472;2022-09-09T05:55:35;12.32;;;7.45;;
52015;SDS011;38032;53.326;6.472;2022-09-09T05:58:01;10.38;;;7.40;;
52015;SDS011;38032;53.326;6.472;2022-09-09T06:00:27;13.02;;;7.65;;
52015;SDS011;38032;53.326;6.472;2022-09-09T06:02:54;11.23;;;7.45;;
52015;SDS011;38032;53.326;6.472;2022-09-09T06:05:20;12.43;;;7.72;;
52015;SDS011;38032;53.326;6.472;2022-09-09T06:07:47;11.68;;;8.02;;
52015;SDS011;38032;53.326;6.472;2022-09-09T06:10:17;12.23;;;7.97;;
52015;SDS011;38032;53.326;6.472;2022-09-09T06:12:42;13.43;;;8.35;;
52015;SDS011;38032;53.326;6.472;2022-09-09T06:15:08;10.57;;;8.00;;
52015;SDS011;38032;53.326;6.472;2022-09-09T06:17:34;14.38;;;8.38;;
52015;SDS011;38032;53.326;6.472;2022-09-09T06:20:00;11.38;;;8.60;;
52015;SDS011;38032;53.326;6.472;2022-09-09T06:22:26;12.88;;;8.65;;
52015;SDS011;38032;53.326;6.472;2022-09-09T06:24:52;13.05;;;8.68;;
52015;SDS011;38032;53.326;6.472;2022-09-09T06:27:18;11.93;;;7.97;;
52015;SDS011;38032;53.326;6.472;2022-09-09T06:29:44;12.52;;;8.75;;
52015;SDS011;38032;53.326;6.472;2022-09-09T06:32:10;11.43;;;8.60;;
52015;SDS011;38032;53.326;6.472;2022-09-09T06:34:36;11.07;;;8.77;;
52015;SDS011;38032;53.326;6.472;2022-09-09T06:37:01;12.70;;;9.00;;
52015;SDS011;38032;53.326;6.472;2022-09-09T06:39:27;15.15;;;9.40;;
52015;SDS011;38032;53.326;6.472;2022-09-09T06:41:53;12.32;;;8.73;;
52015;SDS011;38032;53.326;6.472;2022-09-09T06:44:19;10.75;;;8.25;;
52015;SDS011;38032;53.326;6.472;2022-09-09T06:46:45;13.88;;;8.80;;
52015;SDS011;38032;53.326;6.472;2022-09-09T06:49:13;12.38;;;8.65;;
52015;SDS011;38032;53.326;6.472;2022-09-09T06:51:39;14.73;;;8.90;;
52015;SDS011;38032;53.326;6.472;2022-09-09T06:54:07;10.85;;;8.43;;
52015;SDS011;38032;53.326;6.472;2022-09-09T06:56:36;14.55;;;8.95;;
52015;SDS011;38032;53.326;6.472;2022-09-09T06:59:05;11.65;;;7.85;;
52015;SDS011;38032;53.326;6.472;2022-09-09T07:01:35;12.30;;;7.70;;
52015;SDS011;38032;53.326;6.472;2022-09-09T07:04:02;13.57;;;8.32;;
52015;SDS011;38032;53.326;6.472;2022-09-09T07:06:30;11.75;;;7.97;;
52015;SDS011;38032;53.326;6.472;2022-09-09T07:08:58;10.40;;;7.78;;
52015;SDS011;38032;53.326;6.472;2022-09-09T07:11:28;11.82;;;7.88;;
52015;SDS011;38032;53.326;6.472;2022-09-09T07:13:57;10.55;;;7.72;;
52015;SDS011;38032;53.326;6.472;2022-09-09T07:16:24;10.43;;;7.95;;
52015;SDS011;38032;53.326;6.472;2022-09-09T07:18:52;11.27;;;7.47;;
52015;SDS011;38032;53.326;6.472;2022-09-09T07:21:23;10.55;;;7.88;;
52015;SDS011;38032;53.326;6.472;2022-09-09T07:23:51;11.70;;;8.23;;
52015;SDS011;38032;53.326;6.472;2022-09-09T07:26:18;9.75;;;6.80;;
52015;SDS011;38032;53.326;6.472;2022-09-09T07:28:45;9.50;;;7.22;;
52015;SDS011;38032;53.326;6.472;2022-09-09T07:31:13;10.70;;;7.47;;
52015;SDS011;38032;53.326;6.472;2022-09-09T07:33:41;10.38;;;7.45;;
52015;SDS011;38032;53.326;6.472;2022-09-09T07:36:09;9.63;;;7.25;;
52015;SDS011;38032;53.326;6.472;2022-09-09T07:38:39;11.00;;;7.25;;
52015;SDS011;38032;53.326;6.472;2022-09-09T07:41:07;9.40;;;7.10;;
52015;SDS011;38032;53.326;6.472;2022-09-09T07:43:38;11.07;;;6.72;;
52015;SDS011;38032;53.326;6.472;2022-09-09T07:46:05;9.85;;;6.75;;
52015;SDS011;38032;53.326;6.472;2022-09-09T07:48:31;10.63;;;6.60;;
52015;SDS011;38032;53.326;6.472;2022-09-09T07:51:08;10.25;;;6.45;;
52015;SDS011;38032;53.326;6.472;2022-09-09T07:53:36;8.30;;;6.55;;
52015;SDS011;38032;53.326;6.472;2022-09-09T07:56:04;9.77;;;6.28;;
52015;SDS011;38032;53.326;6.472;2022-09-09T07:58:30;9.00;;;6.18;;
52015;SDS011;38032;53.326;6.472;2022-09-09T08:00:56;14.25;;;6.30;;
52015;SDS011;38032;53.326;6.472;2022-09-09T08:03:22;9.38;;;6.20;;
52015;SDS011;38032;53.326;6.472;2022-09-09T08:05:48;9.00;;;5.90;;
52015;SDS011;38032;53.326;6.472;2022-09-09T08:08:14;9.13;;;6.00;;
52015;SDS011;38032;53.326;6.472;2022-09-09T08:10:41;8.77;;;6.13;;
52015;SDS011;38032;53.326;6.472;2022-09-09T08:13:08;8.00;;;5.90;;
52015;SDS011;38032;53.326;6.472;2022-09-09T08:15:34;8.73;;;5.90;;
52015;SDS011;38032;53.326;6.472;2022-09-09T08:18:00;8.50;;;5.72;;
52015;SDS011;38032;53.326;6.472;2022-09-09T08:20:26;6.70;;;5.10;;
52015;SDS011;38032;53.326;6.472;2022-09-09T08:22:54;8.45;;;6.10;;
52015;SDS011;38032;53.326;6.472;2022-09-09T08:25:20;8.35;;;5.53;;
52015;SDS011;38032;53.326;6.472;2022-09-09T08:27:46;8.68;;;5.43;;
52015;SDS011;38032;53.326;6.472;2022-09-09T08:30:12;8.25;;;5.72;;
52015;SDS011;38032;53.326;6.472;2022-09-09T08:32:39;8.50;;;5.45;;
52015;SDS011;38032;53.326;6.472;2022-09-09T08:35:04;7.35;;;5.50;;
52015;SDS011;38032;53.326;6.472;2022-09-09T08:37:31;8.43;;;5.07;;
52015;SDS011;38032;53.326;6.472;2022-09-09T08:39:57;6.85;;;4.68;;
52015;SDS011;38032;53.326;6.472;2022-09-09T08:42:29;7.68;;;5.18;;
52015;SDS011;38032;53.326;6.472;2022-09-09T08:45:09;7.80;;;5.43;;
52015;SDS011;38032;53.326;6.472;2022-09-09T08:50:28;7.40;;;5.22;;
52015;SDS011;38032;53.326;6.472;2022-09-09T08:53:01;9.32;;;5.00;;
52015;SDS011;38032;53.326;6.472;2022-09-09T08:55:41;9.03;;;4.60;;
52015;SDS011;38032;53.326;6.472;2022-09-09T08:58:20;7.68;;;5.03;;
52015;SDS011;38032;53.326;6.472;2022-09-09T09:03:57;9.00;;;4.80;;
52015;SDS011;38032;53.326;6.472;2022-09-09T09:09:01;7.65;;;4.47;;
52015;SDS011;38032;53.326;6.472;2022-09-09T09:11:43;5.68;;;4.47;;
52015;SDS011;38032;53.326;6.472;2022-09-09T09:19:23;10.50;;;4.05;;
52015;SDS011;38032;53.326;6.472;2022-09-09T09:24:19;6.80;;;3.75;;
52015;SDS011;38032;53.326;6.472;2022-09-09T09:26:47;6.72;;;3.60;;
52015;SDS011;38032;53.326;6.472;2022-09-09T09:29:14;6.70;;;4.07;;
52015;SDS011;38032;53.326;6.472;2022-09-09T09:31:45;8.48;;;4.47;;
52015;SDS011;38032;53.326;6.472;2022-09-09T09:34:14;6.80;;;4.47;;
52015;SDS011;38032;53.326;6.472;2022-09-09T09:36:41;6.55;;;3.83;;
52015;SDS011;38032;53.326;6.472;2022-09-09T09:39:21;6.72;;;3.80;;
52015;SDS011;38032;53.326;6.472;2022-09-09T09:41:48;8.13;;;4.32;;
52015;SDS011;38032;53.326;6.472;2022-09-09T09:44:22;9.30;;;4.00;;
52015;SDS011;38032;53.326;6.472;2022-09-09T09:46:50;5.55;;;3.70;;
52015;SDS011;38032;53.326;6.472;2022-09-09T09:49:16;5.80;;;3.67;;
52015;SDS011;38032;53.326;6.472;2022-09-09T09:51:42;6.00;;;3.88;;
52015;SDS011;38032;53.326;6.472;2022-09-09T09:56:53;6.05;;;3.58;;
52015;SDS011;38032;53.326;6.472;2022-09-09T10:01:46;8.15;;;4.20;;
52015;SDS011;38032;53.326;6.472;2022-09-09T10:04:16;6.68;;;3.63;;
52015;SDS011;38032;53.326;6.472;2022-09-09T10:06:45;8.10;;;3.67;;
52015;SDS011;38032;53.326;6.472;2022-09-09T10:09:22;9.32;;;3.70;;
52015;SDS011;38032;53.326;6.472;2022-09-09T10:14:30;7.22;;;3.30;;
52015;SDS011;38032;53.326;6.472;2022-09-09T10:17:09;6.45;;;2.72;;
52015;SDS011;38032;53.326;6.472;2022-09-09T10:22:38;8.13;;;2.80;;
52015;SDS011;38032;53.326;6.472;2022-09-09T10:25:15;9.77;;;3.58;;
52015;SDS011;38032;53.326;6.472;2022-09-09T10:28:17;9.52;;;3.28;;
52015;SDS011;38032;53.326;6.472;2022-09-09T10:36:20;8.18;;;2.90;;
52015;SDS011;38032;53.326;6.472;2022-09-09T10:39:02;7.75;;;2.95;;
52015;SDS011;38032;53.326;6.472;2022-09-09T10:41:44;5.93;;;2.60;;
52015;SDS011;38032;53.326;6.472;2022-09-09T10:47:05;6.55;;;2.40;;
52015;SDS011;38032;53.326;6.472;2022-09-09T10:57:48;9.65;;;3.30;;
52015;SDS011;38032;53.326;6.472;2022-09-09T11:00:19;7.57;;;3.05;;
52015;SDS011;38032;53.326;6.472;2022-09-09T11:02:46;9.07;;;2.33;;
52015;SDS011;38032;53.326;6.472;2022-09-09T11:05:19;5.88;;;2.30;;
52015;SDS011;38032;53.326;6.472;2022-09-09T11:07:49;4.15;;;1.70;;
52015;SDS011;38032;53.326;6.472;2022-09-09T11:10:34;4.63;;;1.90;;
52015;SDS011;38032;53.326;6.472;2022-09-09T11:13:15;8.48;;;2.03;;
52015;SDS011;38032;53.326;6.472;2022-09-09T11:15:49;6.45;;;2.00;;
52015;SDS011;38032;53.326;6.472;2022-09-09T11:18:20;4.40;;;1.60;;
52015;SDS011;38032;53.326;6.472;2022-09-09T11:20:49;8.38;;;2.10;;
52015;SDS011;38032;53.326;6.472;2022-09-09T11:23:22;6.10;;;2.08;;
52015;SDS011;38032;53.326;6.472;2022-09-09T11:25:55;5.97;;;2.05;;
52015;SDS011;38032;53.326;6.472;2022-09-09T11:31:21;7.72;;;2.05;;
52015;SDS011;38032;53.326;6.472;2022-09-09T11:37:06;6.70;;;2.13;;
52015;SDS011;38032;53.326;6.472;2022-09-09T11:40:02;8.35;;;2.55;;
52015;SDS011;38032;53.326;6.472;2022-09-09T11:42:38;5.75;;;1.77;;
52015;SDS011;38032;53.326;6.472;2022-09-09T11:45:15;5.13;;;1.77;;
52015;SDS011;38032;53.326;6.472;2022-09-09T11:52:45;5.20;;;1.90;;
52015;SDS011;38032;53.326;6.472;2022-09-09T11:55:25;4.82;;;2.08;;
52015;SDS011;38032;53.326;6.472;2022-09-09T11:57:57;7.80;;;2.00;;
52015;SDS011;38032;53.326;6.472;2022-09-09T12:03:00;6.57;;;1.80;;
52015;SDS011;38032;53.326;6.472;2022-09-09T12:05:37;5.63;;;1.88;;
52015;SDS011;38032;53.326;6.472;2022-09-09T12:08:06;5.53;;;1.70;;
52015;SDS011;38032;53.326;6.472;2022-09-09T12:10:38;5.47;;;1.65;;
52015;SDS011;38032;53.326;6.472;2022-09-09T12:15:49;8.70;;;2.20;;
52015;SDS011;38032;53.326;6.472;2022-09-09T12:18:22;3.13;;;1.83;;
52015;SDS011;38032;53.326;6.472;2022-09-09T12:23:50;5.78;;;2.10;;
52015;SDS011;38032;53.326;6.472;2022-09-09T12:26:23;5.32;;;2.00;;
52015;SDS011;38032;53.326;6.472;2022-09-09T12:33:53;6.00;;;1.80;;
52015;SDS011;38032;53.326;6.472;2022-09-09T12:36:20;5.53;;;2.17;;
52015;SDS011;38032;53.326;6.472;2022-09-09T12:38:50;5.50;;;1.85;;
52015;SDS011;38032;53.326;6.472;2022-09-09T12:41:19;4.20;;;1.70;;
52015;SDS011;38032;53.326;6.472;2022-09-09T12:43:47;4.93;;;1.92;;
52015;SDS011;38032;53.326;6.472;2022-09-09T12:46:23;5.75;;;1.80;;
52015;SDS011;38032;53.326;6.472;2022-09-09T12:48:58;4.25;;;1.63;;
52015;SDS011;38032;53.326;6.472;2022-09-09T12:51:27;4.82;;;1.92;;
52015;SDS011;38032;53.326;6.472;2022-09-09T12:53:55;3.42;;;1.70;;
52015;SDS011;38032;53.326;6.472;2022-09-09T12:56:24;3.97;;;1.65;;
52015;SDS011;38032;53.326;6.472;2022-09-09T12:58:56;6.23;;;1.77;;
52015;SDS011;38032;53.326;6.472;2022-09-09T13:01:24;7.18;;;2.03;;
52015;SDS011;38032;53.326;6.472;2022-09-09T13:03:53;4.88;;;1.85;;
52015;SDS011;38032;53.326;6.472;2022-09-09T13:06:21;8.82;;;1.67;;
52015;SDS011;38032;53.326;6.472;2022-09-09T13:08:50;4.88;;;2.00;;
52015;SDS011;38032;53.326;6.472;2022-09-09T13:11:18;5.70;;;1.90;;
52015;SDS011;38032;53.326;6.472;2022-09-09T13:13:50;4.50;;;2.00;;
52015;SDS011;38032;53.326;6.472;2022-09-09T13:16:20;3.17;;;1.65;;
52015;SDS011;38032;53.326;6.472;2022-09-09T13:18:49;4.55;;;1.80;;
52015;SDS011;38032;53.326;6.472;2022-09-09T13:21:15;3.92;;;1.65;;
52015;SDS011;38032;53.326;6.472;2022-09-09T13:23:42;6.88;;;2.28;;
52015;SDS011;38032;53.326;6.472;2022-09-09T13:26:24;6.57;;;1.55;;
52015;SDS011;38032;53.326;6.472;2022-09-09T13:28:52;4.15;;;1.63;;
52015;SDS011;38032;53.326;6.472;2022-09-09T13:31:20;3.78;;;1.70;;
52015;SDS011;38032;53.326;6.472;2022-09-09T13:33:49;4.72;;;1.70;;
52015;SDS011;38032;53.326;6.472;2022-09-09T13:36:26;5.20;;;1.75;;
52015;SDS011;38032;53.326;6.472;2022-09-09T13:38:55;4.05;;;1.60;;
52015;SDS011;38032;53.326;6.472;2022-09-09T13:41:22;5.43;;;1.80;;
52015;SDS011;38032;53.326;6.472;2022-09-09T13:43:50;4.13;;;1.50;;
52015;SDS011;38032;53.326;6.472;2022-09-09T13:46:34;7.13;;;1.77;;
52015;SDS011;38032;53.326;6.472;2022-09-09T13:49:17;6.57;;;1.88;;
52015;SDS011;38032;53.326;6.472;2022-09-09T13:51:46;3.97;;;1.55;;
52015;SDS011;38032;53.326;6.472;2022-09-09T13:54:16;6.13;;;1.83;;
52015;SDS011;38032;53.326;6.472;2022-09-09T13:56:43;7.10;;;1.90;;
52015;SDS011;38032;53.326;6.472;2022-09-09T13:59:11;6.20;;;1.85;;
52015;SDS011;38032;53.326;6.472;2022-09-09T14:01:39;5.80;;;1.80;;
52015;SDS011;38032;53.326;6.472;2022-09-09T14:04:05;8.20;;;2.17;;
52015;SDS011;38032;53.326;6.472;2022-09-09T14:06:32;5.20;;;1.92;;
52015;SDS011;38032;53.326;6.472;2022-09-09T14:09:01;8.55;;;2.22;;
52015;SDS011;38032;53.326;6.472;2022-09-09T14:11:26;13.13;;;2.80;;
52015;SDS011;38032;53.326;6.472;2022-09-09T14:13:52;10.75;;;2.53;;
52015;SDS011;38032;53.326;6.472;2022-09-09T14:16:18;4.78;;;2.03;;
52015;SDS011;38032;53.326;6.472;2022-09-09T14:18:45;5.88;;;2.10;;
52015;SDS011;38032;53.326;6.472;2022-09-09T14:21:11;4.32;;;1.98;;
52015;SDS011;38032;53.326;6.472;2022-09-09T14:23:37;7.00;;;2.03;;
52015;SDS011;38032;53.326;6.472;2022-09-09T14:26:05;9.50;;;2.08;;
52015;SDS011;38032;53.326;6.472;2022-09-09T14:28:31;5.07;;;1.90;;
52015;SDS011;38032;53.326;6.472;2022-09-09T14:30:59;5.38;;;2.00;;
52015;SDS011;38032;53.326;6.472;2022-09-09T14:33:26;4.22;;;1.90;;
52015;SDS011;38032;53.326;6.472;2022-09-09T14:35:56;5.47;;;1.70;;
52015;SDS011;38032;53.326;6.472;2022-09-09T14:38:22;5.82;;;1.73;;
52015;SDS011;38032;53.326;6.472;2022-09-09T14:40:49;5.05;;;1.80;;
52015;SDS011;38032;53.326;6.472;2022-09-09T14:43:15;5.70;;;2.17;;
52015;SDS011;38032;53.326;6.472;2022-09-09T14:45:40;3.13;;;1.42;;
52015;SDS011;38032;53.326;6.472;2022-09-09T14:48:06;5.45;;;1.70;;
52015;SDS011;38032;53.326;6.472;2022-09-09T14:50:32;4.95;;;1.60;;
52015;SDS011;38032;53.326;6.472;2022-09-09T14:52:59;4.68;;;1.83;;
52015;SDS011;38032;53.326;6.472;2022-09-09T14:55:25;5.07;;;1.70;;
52015;SDS011;38032;53.326;6.472;2022-09-09T14:57:53;3.85;;;2.00;;
52015;SDS011;38032;53.326;6.472;2022-09-09T15:00:19;4.80;;;1.83;;
52015;SDS011;38032;53.326;6.472;2022-09-09T15:02:45;6.60;;;1.73;;
52015;SDS011;38032;53.326;6.472;2022-09-09T15:05:11;5.63;;;1.98;;
52015;SDS011;38032;53.326;6.472;2022-09-09T15:07:37;4.22;;;1.80;;
52015;SDS011;38032;53.326;6.472;2022-09-09T15:10:03;4.97;;;1.40;;
52015;SDS011;38032;53.326;6.472;2022-09-09T15:12:29;5.50;;;1.60;;
52015;SDS011;38032;53.326;6.472;2022-09-09T15:14:55;4.22;;;1.75;;
52015;SDS011;38032;53.326;6.472;2022-09-09T15:17:21;4.40;;;1.52;;
52015;SDS011;38032;53.326;6.472;2022-09-09T15:19:47;4.00;;;1.80;;
52015;SDS011;38032;53.326;6.472;2022-09-09T15:22:15;6.22;;;2.13;;
52015;SDS011;38032;53.326;6.472;2022-09-09T15:24:40;5.28;;;1.70;;
52015;SDS011;38032;53.326;6.472;2022-09-09T15:27:06;3.47;;;1.70;;
52015;SDS011;38032;53.326;6.472;2022-09-09T15:29:32;5.32;;;1.67;;
52015;SDS011;38032;53.326;6.472;2022-09-09T15:31:58;4.07;;;1.50;;
52015;SDS011;38032;53.326;6.472;2022-09-09T15:34:24;3.72;;;1.40;;
52015;SDS011;38032;53.326;6.472;2022-09-09T15:36:50;3.42;;;1.60;;
52015;SDS011;38032;53.326;6.472;2022-09-09T15:39:17;4.05;;;1.30;;
52015;SDS011;38032;53.326;6.472;2022-09-09T15:41:44;2.47;;;1.20;;
52015;SDS011;38032;53.326;6.472;2022-09-09T15:44:11;2.88;;;1.33;;
52015;SDS011;38032;53.326;6.472;2022-09-09T15:49:07;2.75;;;1.20;;
52015;SDS011;38032;53.326;6.472;2022-09-09T15:51:35;3.67;;;1.33;;
52015;SDS011;38032;53.326;6.472;2022-09-09T15:54:03;4.32;;;1.30;;
52015;SDS011;38032;53.326;6.472;2022-09-09T15:56:30;4.03;;;1.23;;
52015;SDS011;38032;53.326;6.472;2022-09-09T15:58:56;3.53;;;1.20;;
52015;SDS011;38032;53.326;6.472;2022-09-09T16:01:24;3.28;;;1.33;;
52015;SDS011;38032;53.326;6.472;2022-09-09T16:03:51;3.78;;;1.20;;
52015;SDS011;38032;53.326;6.472;2022-09-09T16:06:19;2.28;;;1.20;;
52015;SDS011;38032;53.326;6.472;2022-09-09T16:08:47;3.72;;;1.30;;
52015;SDS011;38032;53.326;6.472;2022-09-09T16:11:16;4.85;;;1.40;;
52015;SDS011;38032;53.326;6.472;2022-09-09T16:13:46;3.67;;;1.65;;
52015;SDS011;38032;53.326;6.472;2022-09-09T16:16:14;4.70;;;1.60;;
52015;SDS011;38032;53.326;6.472;2022-09-09T16:18:43;9.88;;;2.30;;
52015;SDS011;38032;53.326;6.472;2022-09-09T16:23:46;5.68;;;1.70;;
52015;SDS011;38032;53.326;6.472;2022-09-09T16:26:14;5.85;;;1.85;;